Time;durP1;ratioP1;P1;durP2;ratioP2;P2;SDS_P1;SDS_P2;PMS_P1;PMS_P2;Temp;Humidity;BMP_temperature;BMP_pressure;BME280_temperature;BME280_humidity;BME280_pressure;Samples;Min_cycle;Max_cycle;Signal;HPM_P1;HPM_P2
2022/06/30 00:01:13;;;;;;;3.70;1.20;;;;;;;18.46;59.28;100709.13;4967816;28;20166;-85
2022/06/30 00:03:40;;;;;;;4.18;2.13;;;;;;;18.41;59.40;100704.91;4978710;28;20758;-86
2022/06/30 00:06:07;;;;;;;1.33;1.33;;;;;;;18.40;59.61;100704.06;4965399;28;20050;-87
2022/06/30 00:08:44;;;;;;;5.45;1.70;;;;;;;18.38;59.63;100708.56;4982679;28;20051;-87
2022/06/30 00:11:12;;;;;;;1.33;1.30;;;;;;;18.34;59.82;100699.00;4984178;28;20524;-86
2022/06/30 00:13:42;;;;;;;1.52;1.13;;;;;;;18.31;59.74;100694.69;4966726;28;20397;-85
2022/06/30 00:16:15;;;;;;;1.70;1.60;;;;;;;18.26;60.04;100694.00;4969189;28;20049;-85
2022/06/30 00:18:45;;;;;;;3.60;1.55;;;;;;;18.24;60.25;100705.59;4966395;28;20054;-84
2022/06/30 00:21:12;;;;;;;1.88;1.35;;;;;;;18.19;60.44;100705.81;4978658;28;20046;-87
2022/06/30 00:23:39;;;;;;;1.75;1.33;;;;;;;18.17;60.43;100715.59;4965046;28;20872;-87
2022/06/30 00:26:08;;;;;;;2.08;1.40;;;;;;;18.12;60.69;100709.59;4977891;28;20829;-86
2022/06/30 00:28:35;;;;;;;1.10;1.00;;;;;;;18.13;60.84;100696.31;4967736;28;20050;-87
2022/06/30 00:31:06;;;;;;;2.20;1.05;;;;;;;18.13;60.92;100708.69;4998786;28;20062;-86
2022/06/30 00:33:32;;;;;;;1.83;1.25;;;;;;;18.11;60.95;100699.94;4980756;28;20038;-85
2022/06/30 00:35:59;;;;;;;5.22;1.70;;;;;;;18.07;61.19;100696.56;4964464;28;20430;-86
2022/06/30 00:38:26;;;;;;;2.33;1.10;;;;;;;18.04;61.42;100691.34;4979770;28;20030;-85
2022/06/30 00:40:52;;;;;;;0.85;0.85;;;;;;;18.00;61.33;100697.72;4979974;28;20042;-86
2022/06/30 00:43:19;;;;;;;1.55;1.30;;;;;;;17.95;61.25;100689.97;4961287;28;20042;-85
2022/06/30 00:45:49;;;;;;;1.42;1.33;;;;;;;17.93;61.66;100685.66;4981136;28;20057;-86
2022/06/30 00:48:18;;;;;;;2.25;1.08;;;;;;;17.91;61.67;100690.09;4964040;28;20152;-86
2022/06/30 00:50:46;;;;;;;1.92;1.83;;;;;;;17.89;61.82;100684.00;4966464;28;20076;-87
2022/06/30 00:53:13;;;;;;;1.63;1.52;;;;;;;17.88;61.84;100679.63;4961512;28;20564;-85
2022/06/30 00:55:41;;;;;;;1.73;1.25;;;;;;;17.86;61.92;100679.69;4980047;28;20046;-84
2022/06/30 00:58:11;;;;;;;2.90;1.95;;;;;;;17.85;62.06;100667.38;4978890;28;20603;-86
2022/06/30 01:00:41;;;;;;;3.03;1.33;;;;;;;17.84;62.19;100658.53;4965063;28;20149;-86
2022/06/30 01:03:10;;;;;;;3.53;1.10;;;;;;;17.83;62.12;100659.50;4959322;28;20540;-86
2022/06/30 01:05:37;;;;;;;1.30;1.20;;;;;;;17.82;62.23;100655.13;4999069;28;20477;-85
2022/06/30 01:08:06;;;;;;;2.65;1.30;;;;;;;17.81;62.59;100657.81;4982947;28;20567;-85
2022/06/30 01:13:19;;;;;;;2.40;1.38;;;;;;;17.80;62.34;100654.28;4982960;28;20066;-86
2022/06/30 01:15:46;;;;;;;2.38;1.27;;;;;;;17.79;62.47;100662.31;4984322;28;20547;-84
2022/06/30 01:18:13;;;;;;;1.67;1.05;;;;;;;17.78;62.65;100663.22;4969127;28;20061;-86
2022/06/30 01:20:43;;;;;;;4.75;1.85;;;;;;;17.75;62.85;100661.56;4984795;28;20046;-86
2022/06/30 01:23:09;;;;;;;1.30;1.25;;;;;;;17.76;63.06;100658.00;4981456;28;20108;-84
2022/06/30 01:25:36;;;;;;;3.05;1.70;;;;;;;17.75;62.88;100652.75;4979841;28;20125;-85
2022/06/30 01:28:04;;;;;;;1.98;1.38;;;;;;;17.75;62.87;100645.66;4981370;28;20038;-85
2022/06/30 01:30:31;;;;;;;2.45;1.83;;;;;;;17.74;63.04;100640.44;4986530;28;20109;-86
2022/06/30 01:32:58;;;;;;;2.08;1.73;;;;;;;17.72;63.33;100642.28;4980753;28;20070;-84
2022/06/30 01:35:25;;;;;;;1.48;1.25;;;;;;;17.72;63.40;100643.16;4985172;28;20051;-86
2022/06/30 01:37:57;;;;;;;1.52;1.42;;;;;;;17.69;63.48;100637.97;4983550;28;20054;-84
2022/06/30 01:40:33;;;;;;;2.28;1.80;;;;;;;17.71;63.36;100648.50;4986954;28;21468;-86
2022/06/30 01:43:05;;;;;;;1.83;1.70;;;;;;;17.71;63.62;100641.41;4983640;28;20034;-87
2022/06/30 01:45:32;;;;;;;1.70;1.60;;;;;;;17.73;63.68;100649.31;4985866;28;20416;-86
2022/06/30 01:48:00;;;;;;;1.50;1.50;;;;;;;17.69;63.29;100652.06;4984651;28;20122;-85
2022/06/30 01:50:31;;;;;;;2.03;1.85;;;;;;;17.65;63.63;100655.78;4982415;28;20070;-86
2022/06/30 01:53:01;;;;;;;5.07;1.48;;;;;;;17.61;63.69;100659.47;4975171;28;20096;-86
2022/06/30 01:55:29;;;;;;;2.03;1.75;;;;;;;17.55;63.67;100646.44;4979034;28;20058;-86
2022/06/30 01:57:56;;;;;;;2.28;1.67;;;;;;;17.52;63.92;100649.19;4963632;28;20078;-87
2022/06/30 02:00:26;;;;;;;2.28;1.55;;;;;;;17.51;63.81;100644.84;4983444;28;20050;-84
2022/06/30 02:02:57;;;;;;;1.50;1.40;;;;;;;17.49;64.06;100644.88;4980774;28;20476;-86
2022/06/30 02:05:27;;;;;;;2.17;1.58;;;;;;;17.46;64.35;100644.16;4969613;28;20719;-87
2022/06/30 02:07:54;;;;;;;1.52;1.02;;;;;;;17.46;64.17;100646.81;4982870;28;20117;-86
2022/06/30 02:10:25;;;;;;;1.65;1.48;;;;;;;17.41;64.37;100649.63;4983776;28;20042;-86
2022/06/30 02:12:52;;;;;;;1.95;1.63;;;;;;;17.38;64.49;100652.38;4967643;28;20046;-85
2022/06/30 02:15:27;;;;;;;1.45;1.35;;;;;;;17.33;64.70;100644.59;4969295;28;20050;-85
2022/06/30 02:17:56;;;;;;;1.92;1.80;;;;;;;17.30;64.75;100641.19;4997093;28;20058;-85
2022/06/30 02:20:24;;;;;;;2.53;1.63;;;;;;;17.25;65.02;100640.50;4979763;28;20061;-85
2022/06/30 02:22:58;;;;;;;1.63;1.52;;;;;;;17.22;64.92;100646.78;4982347;28;20054;-85
2022/06/30 02:25:28;;;;;;;;;;;;;;;17.18;65.67;100637.22;4984409;28;20730;-85
2022/06/30 02:27:55;;;;;;;1.95;1.42;;;;;;;17.13;65.68;100642.72;4965821;28;19929;-84
2022/06/30 02:30:25;;;;;;;1.77;1.60;;;;;;;17.13;65.56;100634.78;4983971;28;20034;-86
2022/06/30 02:32:59;;;;;;;1.45;1.35;;;;;;;17.10;65.62;100634.00;4982012;28;20035;-85
2022/06/30 02:35:26;;;;;;;3.55;1.65;;;;;;;17.07;65.74;100634.13;4985013;28;20112;-85
2022/06/30 02:37:54;;;;;;;2.92;1.63;;;;;;;17.01;66.08;100630.78;4991923;28;20046;-85
2022/06/30 02:40:21;;;;;;;3.83;2.03;;;;;;;17.01;66.08;100636.09;4977766;28;20621;-86
2022/06/30 02:42:50;;;;;;;1.90;1.80;;;;;;;17.00;65.99;100628.19;4974115;28;20047;-86
2022/06/30 02:45:16;;;;;;;2.28;2.10;;;;;;;16.96;66.02;100634.50;4994923;28;20047;-87
2022/06/30 02:47:45;;;;;;;3.08;1.73;;;;;;;16.95;66.21;100638.94;4989828;28;20057;-86
2022/06/30 02:50:13;;;;;;;1.95;1.75;;;;;;;16.93;66.31;100626.69;4982335;28;20100;-86
2022/06/30 02:52:42;;;;;;;2.25;1.63;;;;;;;16.90;66.13;100624.13;4977818;28;20043;-86
2022/06/30 02:55:10;;;;;;;2.55;2.00;;;;;;;16.87;66.43;100628.59;4980196;28;20503;-85
2022/06/30 02:57:37;;;;;;;4.15;1.83;;;;;;;16.87;66.52;100622.47;4973520;28;20054;-87
2022/06/30 03:00:08;;;;;;;3.80;1.77;;;;;;;16.84;66.37;100626.09;4981034;28;20073;-85
2022/06/30 03:02:38;;;;;;;;;;;;;;;16.84;66.85;100625.19;5006464;28;20042;-86
2022/06/30 03:05:06;;;;;;;1.83;1.73;;;;;;;16.83;66.57;100627.00;4974928;28;19925;-84
2022/06/30 03:07:32;;;;;;;2.20;1.80;;;;;;;16.82;66.55;100621.75;4993080;28;20038;-86
2022/06/30 03:10:03;;;;;;;1.55;1.45;;;;;;;16.80;66.61;100619.16;4993948;28;20047;-85
2022/06/30 03:12:30;;;;;;;2.55;1.67;;;;;;;16.80;66.58;100626.22;4964537;28;20046;-86
2022/06/30 03:14:57;;;;;;;2.60;1.92;;;;;;;16.79;66.88;100627.13;4983602;28;20050;-86
2022/06/30 03:17:24;;;;;;;2.63;2.10;;;;;;;16.78;66.77;100623.66;4991620;28;20061;-86
2022/06/30 03:19:51;;;;;;;2.80;2.00;;;;;;;16.78;66.90;100623.66;4991207;28;20051;-88
2022/06/30 03:22:17;;;;;;;3.67;2.53;;;;;;;16.78;66.77;100636.88;4988622;28;20074;-86
2022/06/30 03:24:44;;;;;;;2.15;2.05;;;;;;;16.78;66.87;100631.56;4972967;28;21264;-87
2022/06/30 03:27:11;;;;;;;2.30;2.10;;;;;;;16.79;66.94;100635.06;4990643;28;20046;-86
2022/06/30 03:29:39;;;;;;;1.80;1.65;;;;;;;16.78;67.22;100633.34;4997472;28;20041;-85
2022/06/30 03:32:06;;;;;;;2.00;1.90;;;;;;;16.76;67.22;100630.75;4974207;28;20053;-85
2022/06/30 03:34:33;;;;;;;1.85;1.75;;;;;;;16.74;67.53;100624.69;4973609;28;20063;-86
2022/06/30 03:37:02;;;;;;;5.50;1.90;;;;;;;16.69;67.42;100619.53;4970053;28;20133;-84
2022/06/30 03:39:31;;;;;;;4.10;2.35;;;;;;;16.67;67.84;100621.38;4982072;28;20046;-86
2022/06/30 03:41:58;;;;;;;3.80;2.17;;;;;;;16.65;68.01;100612.63;4984777;28;20130;-85
2022/06/30 03:44:25;;;;;;;4.78;2.45;;;;;;;16.65;68.15;100610.00;4972718;28;20103;-84
2022/06/30 03:46:52;;;;;;;3.05;2.00;;;;;;;16.66;67.91;100595.88;4970998;28;20046;-86
2022/06/30 03:52:11;;;;;;;2.85;2.28;;;;;;;16.64;68.41;100607.41;4982913;28;20118;-86
2022/06/30 03:54:41;;;;;;;8.65;2.53;;;;;;;16.64;68.40;100599.47;4967776;28;20130;-87
2022/06/30 03:57:09;;;;;;;3.20;1.80;;;;;;;16.64;68.45;100597.69;4968570;28;20504;-86
2022/06/30 03:59:37;;;;;;;1.80;1.70;;;;;;;16.63;68.41;100598.59;4990756;28;20072;-87
2022/06/30 04:02:08;;;;;;;2.15;2.05;;;;;;;16.63;68.62;100606.53;4970062;28;20449;-87
2022/06/30 04:04:40;;;;;;;2.50;2.05;;;;;;;16.64;69.00;100612.69;4995573;28;20084;-86
2022/06/30 04:07:08;;;;;;;2.55;2.20;;;;;;;16.62;68.91;100611.88;4969368;28;20049;-86
2022/06/30 04:09:35;;;;;;;2.88;1.90;;;;;;;16.62;68.87;100603.94;4970347;28;20080;-85
2022/06/30 04:12:02;;;;;;;3.10;2.70;;;;;;;16.64;68.86;100608.25;4972352;28;20054;-86
2022/06/30 04:14:31;;;;;;;3.50;2.38;;;;;;;16.68;68.82;100609.88;5001530;28;20029;-85
2022/06/30 04:17:02;;;;;;;2.03;1.85;;;;;;;16.76;68.68;100608.75;4982211;28;20053;-88
2022/06/30 04:19:38;;;;;;;9.77;2.42;;;;;;;16.84;68.48;100612.88;5006577;28;20613;-85
2022/06/30 04:22:08;;;;;;;2.58;2.38;;;;;;;16.90;68.34;100608.28;5007508;28;20054;-86
2022/06/30 04:24:42;;;;;;;8.68;3.72;;;;;;;16.99;68.10;100615.91;4996058;28;20060;-86
2022/06/30 04:27:09;;;;;;;2.22;2.08;;;;;;;17.06;67.88;100616.53;5028170;28;20021;-87
2022/06/30 04:29:36;;;;;;;8.15;2.42;;;;;;;17.11;67.73;100610.16;4999523;28;20034;-87
2022/06/30 04:37:33;;;;;;;5.38;3.60;;;;;;;17.22;67.51;100604.44;4994187;28;20697;-86
2022/06/30 04:42:44;;;;;;;4.72;2.92;;;;;;;17.31;67.55;100605.91;4980033;28;20052;-86
2022/06/30 04:45:11;;;;;;;3.13;2.85;;;;;;;17.33;67.47;100598.78;4965338;28;20038;-85
2022/06/30 04:47:39;;;;;;;5.53;2.67;;;;;;;17.39;67.52;100595.03;4997537;28;20046;-85
2022/06/30 04:50:07;;;;;;;2.85;2.47;;;;;;;17.43;67.41;100592.22;5017314;28;20046;-86
2022/06/30 04:52:34;;;;;;;3.17;2.88;;;;;;;17.46;67.38;100594.72;5012921;28;20042;-87
2022/06/30 04:55:01;;;;;;;8.23;2.83;;;;;;;17.50;67.32;100595.47;4981122;28;20476;-85
2022/06/30 04:57:28;;;;;;;6.78;3.15;;;;;;;17.51;67.50;100592.78;4982519;28;20057;-87
2022/06/30 04:59:55;;;;;;;3.72;2.45;;;;;;;17.54;67.35;100602.38;4981073;28;20052;-86
2022/06/30 05:02:23;;;;;;;4.60;2.90;;;;;;;17.60;67.42;100615.38;4995974;28;20092;-84
2022/06/30 05:04:49;;;;;;;4.75;3.47;;;;;;;17.61;67.75;100611.81;4977273;28;20058;-86
2022/06/30 05:07:17;;;;;;;3.85;3.03;;;;;;;17.60;67.95;100614.50;4994479;28;20052;-84
2022/06/30 05:09:45;;;;;;;5.32;2.92;;;;;;;17.60;68.04;100610.09;4994664;28;20129;-86
2022/06/30 05:12:13;;;;;;;7.70;3.25;;;;;;;17.67;68.30;100616.84;4993389;28;20046;-85
2022/06/30 05:14:43;;;;;;;3.03;2.80;;;;;;;17.71;68.29;100625.53;4995448;28;20038;-85
2022/06/30 05:17:11;;;;;;;4.68;2.70;;;;;;;17.77;67.83;100613.84;4982144;28;20072;-85
2022/06/30 05:19:42;;;;;;;3.20;2.67;;;;;;;17.84;68.04;100607.38;4995958;28;20657;-86
2022/06/30 05:22:10;;;;;;;3.75;2.70;;;;;;;17.94;67.80;100614.06;4996357;28;20119;-86
2022/06/30 05:27:21;;;;;;;3.90;3.25;;;;;;;18.07;67.67;100602.97;4996114;28;20061;-85
2022/06/30 05:29:48;;;;;;;8.13;3.03;;;;;;;18.12;67.75;100614.22;4998399;28;20045;-86
2022/06/30 05:32:15;;;;;;;4.30;3.83;;;;;;;18.11;67.85;100621.31;5020048;28;20106;-86
2022/06/30 05:34:42;;;;;;;4.55;2.72;;;;;;;18.13;67.83;100611.53;5021654;28;20053;-85
2022/06/30 05:37:14;;;;;;;5.07;4.03;;;;;;;18.19;67.69;100613.06;4987448;28;20046;-88
2022/06/30 05:39:49;;;;;;;7.57;5.22;;;;;;;18.26;67.56;100614.53;4986169;28;20050;-86
2022/06/30 05:42:16;;;;;;;5.13;3.08;;;;;;;18.37;67.26;100611.44;4985170;28;20054;-86
2022/06/30 05:44:43;;;;;;;9.25;4.20;;;;;;;18.43;67.13;100615.63;5006795;28;20689;-85
2022/06/30 05:47:17;;;;;;;8.65;4.63;;;;;;;18.47;67.25;100615.44;4983333;28;20046;-86
2022/06/30 05:49:45;;;;;;;10.70;5.43;;;;;;;18.46;67.00;100618.13;4983813;28;20103;-86
2022/06/30 05:52:12;;;;;;;7.38;4.10;;;;;;;18.47;67.23;100626.03;4977545;28;20049;-85
2022/06/30 05:54:43;;;;;;;7.60;4.60;;;;;;;18.56;67.43;100627.41;4977968;28;20054;-86
2022/06/30 05:57:10;;;;;;;6.95;4.63;;;;;;;18.64;67.11;100630.63;4976772;28;20050;-87
2022/06/30 05:59:44;;;;;;;5.55;4.13;;;;;;;18.67;67.18;100624.31;4995148;28;20046;-85
2022/06/30 06:02:11;;;;;;;10.38;5.55;;;;;;;18.76;66.99;100618.59;4993260;28;20148;-87
2022/06/30 06:04:39;;;;;;;11.00;4.90;;;;;;;18.88;66.75;100629.59;4994221;28;20056;-86
2022/06/30 06:07:06;;;;;;;12.93;5.50;;;;;;;18.93;66.59;100615.25;4979786;28;20421;-85
2022/06/30 06:09:33;;;;;;;10.43;5.63;;;;;;;18.96;66.79;100611.59;4983838;28;20107;-85
2022/06/30 06:12:02;;;;;;;9.80;4.65;;;;;;;19.06;66.59;100610.25;4977877;28;20140;-86
2022/06/30 06:14:35;;;;;;;7.72;6.43;;;;;;;19.09;66.71;100615.41;4996490;28;20062;-85
2022/06/30 06:17:03;;;;;;;9.20;5.65;;;;;;;19.10;67.00;100618.91;4986547;28;20075;-85
2022/06/30 06:19:33;;;;;;;7.93;5.15;;;;;;;19.15;67.08;100617.78;5003015;28;20072;-86
2022/06/30 06:22:02;;;;;;;7.25;4.65;;;;;;;19.25;67.29;100623.53;4980636;28;20049;-84
2022/06/30 06:24:30;;;;;;;7.45;5.50;;;;;;;19.36;67.13;100620.41;4962823;28;20523;-86
2022/06/30 06:26:57;;;;;;;6.82;4.70;;;;;;;19.50;66.91;100614.41;4990762;28;20048;-87
2022/06/30 06:29:24;;;;;;;6.05;4.43;;;;;;;19.63;66.76;100612.06;4991376;28;20038;-86
2022/06/30 06:31:50;;;;;;;6.00;4.60;;;;;;;19.73;66.40;100602.72;5009198;28;20072;-85
2022/06/30 06:34:17;;;;;;;6.55;4.93;;;;;;;19.90;66.33;100611.72;5008767;28;20076;-86
2022/06/30 06:36:44;;;;;;;7.65;5.10;;;;;;;20.04;65.89;100603.91;4990406;28;20041;-85
2022/06/30 06:39:11;;;;;;;12.43;6.32;;;;;;;20.19;65.70;100601.44;4991435;28;20930;-86
2022/06/30 06:41:39;;;;;;;12.77;6.57;;;;;;;20.28;65.43;100607.13;4992489;28;20042;-85
2022/06/30 06:44:06;;;;;;;10.77;6.38;;;;;;;20.35;65.31;100601.50;4992639;28;20077;-87
2022/06/30 06:46:34;;;;;;;15.57;6.47;;;;;;;20.43;65.22;100602.00;4993699;28;20735;-86
2022/06/30 06:49:07;;;;;;;10.18;5.95;;;;;;;20.52;64.90;100598.00;4981487;28;20125;-86
2022/06/30 06:51:35;;;;;;;;;;;;;;;20.63;64.80;100596.50;5012253;28;20046;-85
2022/06/30 06:54:05;;;;;;;10.18;5.50;;;;;;;20.82;64.17;100598.25;4979536;28;19921;-86
2022/06/30 06:56:33;;;;;;;6.78;5.80;;;;;;;21.01;63.56;100586.63;4976602;28;20052;-86
2022/06/30 06:59:03;;;;;;;5.78;5.07;;;;;;;21.27;62.76;100596.69;4964148;28;20057;-86
2022/06/30 07:01:31;;;;;;;9.45;6.07;;;;;;;21.55;61.96;100587.22;4978560;28;20039;-85
2022/06/30 07:03:58;;;;;;;5.70;5.15;;;;;;;21.76;61.66;100592.28;4995128;28;20060;-86
2022/06/30 07:06:40;;;;;;;6.13;5.45;;;;;;;22.04;60.48;100583.53;4982515;28;20493;-86
2022/06/30 07:09:07;;;;;;;6.13;5.63;;;;;;;22.21;59.85;100589.69;4996878;28;20077;-87
2022/06/30 07:11:36;;;;;;;6.18;4.80;;;;;;;22.31;59.89;100585.53;5000259;28;20061;-87
2022/06/30 07:14:03;;;;;;;6.10;4.38;;;;;;;22.46;59.33;100581.13;4998500;28;20151;-86
2022/06/30 07:16:31;;;;;;;5.75;5.22;;;;;;;22.65;58.99;100580.03;4982290;28;20146;-86
2022/06/30 07:18:57;;;;;;;5.25;4.85;;;;;;;22.66;59.34;100584.38;4998890;28;20130;-88
2022/06/30 07:21:24;;;;;;;7.88;4.95;;;;;;;22.62;59.13;100576.59;4994436;28;20049;-85
2022/06/30 07:23:51;;;;;;;6.60;4.97;;;;;;;22.62;59.35;100578.41;4976011;28;20046;-87
2022/06/30 07:26:19;;;;;;;7.00;4.50;;;;;;;22.62;59.23;100587.25;4973565;28;20050;-87
2022/06/30 07:28:46;;;;;;;5.55;5.05;;;;;;;22.65;59.48;100588.88;4991542;28;20050;-88
2022/06/30 07:31:17;;;;;;;7.45;4.90;;;;;;;22.85;58.93;100584.97;4990102;28;20042;-88
2022/06/30 07:33:50;;;;;;;7.28;5.85;;;;;;;23.15;58.46;100570.69;4994287;28;20107;-87
2022/06/30 07:36:20;;;;;;;5.65;5.15;;;;;;;23.55;56.77;100560.13;4991872;28;20058;-87
2022/06/30 07:38:53;;;;;;;5.88;5.15;;;;;;;24.02;55.93;100565.16;4977129;28;20045;-86
2022/06/30 07:41:20;;;;;;;7.28;4.72;;;;;;;24.64;55.18;100569.00;4998525;28;20476;-88
2022/06/30 07:43:50;;;;;;;5.60;5.07;;;;;;;25.30;52.66;100567.00;4982702;28;20054;-88
2022/06/30 07:46:19;;;;;;;4.55;4.22;;;;;;;25.67;52.00;100566.16;5000091;28;20041;-88
2022/06/30 07:48:47;;;;;;;6.93;4.85;;;;;;;26.13;51.06;100557.38;5001315;28;20052;-87
2022/06/30 07:51:19;;;;;;;5.95;4.93;;;;;;;26.68;49.72;100564.81;5000783;28;20046;-88
2022/06/30 07:53:46;;;;;;;9.80;7.38;;;;;;;27.06;47.88;100555.56;4984142;28;20542;-88
2022/06/30 07:56:13;;;;;;;6.03;5.60;;;;;;;27.34;47.82;100554.19;4965900;28;20342;-86
2022/06/30 07:58:40;;;;;;;8.38;5.97;;;;;;;27.49;46.37;100549.41;4979751;28;20054;-85
2022/06/30 08:01:08;;;;;;;10.90;6.25;;;;;;;27.36;46.53;100554.91;4980621;28;20295;-86
2022/06/30 08:03:35;;;;;;;5.70;5.22;;;;;;;27.43;46.57;100541.00;5008116;28;20044;-87
2022/06/30 08:06:02;;;;;;;7.32;5.57;;;;;;;27.51;46.21;100534.03;4992915;28;20098;-89
2022/06/30 08:08:29;;;;;;;6.15;5.65;;;;;;;27.58;46.15;100541.59;4992735;28;20088;-86
2022/06/30 08:10:56;;;;;;;6.15;5.50;;;;;;;28.04;45.58;100544.00;4998652;28;20156;-90
2022/06/30 08:13:23;;;;;;;6.50;5.90;;;;;;;28.62;44.83;100537.28;4978469;28;20053;-87
2022/06/30 08:15:51;;;;;;;6.43;5.93;;;;;;;29.09;42.98;100541.34;4965609;28;20125;-87
2022/06/30 08:18:20;;;;;;;6.90;6.30;;;;;;;29.38;42.57;100541.44;4978427;28;20054;-87
2022/06/30 08:20:47;;;;;;;6.90;6.25;;;;;;;29.77;41.65;100549.56;4995526;28;20050;-87
2022/06/30 08:23:14;;;;;;;9.00;7.43;;;;;;;30.03;41.07;100541.75;4976484;28;20046;-85
2022/06/30 08:25:41;;;;;;;6.97;6.40;;;;;;;30.16;41.36;100546.88;4975887;28;20170;-86
2022/06/30 08:28:10;;;;;;;8.18;7.38;;;;;;;30.37;40.56;100540.44;4959278;28;20085;-87
2022/06/30 08:30:44;;;;;;;7.25;6.65;;;;;;;30.48;39.98;100544.84;4991514;28;20038;-89
2022/06/30 08:33:13;;;;;;;8.23;7.47;;;;;;;30.30;40.13;100542.03;4972796;28;20046;-88
2022/06/30 08:35:46;;;;;;;7.70;6.95;;;;;;;30.64;39.95;100545.09;4986020;28;20058;-86
2022/06/30 08:38:13;;;;;;;7.13;6.18;;;;;;;31.18;39.15;100537.22;4990431;28;20042;-91
2022/06/30 08:43:30;;;;;;;7.47;6.93;;;;;;;31.67;37.68;100527.94;4986937;28;20050;-91
2022/06/30 08:45:59;;;;;;;7.47;6.78;;;;;;;31.62;38.31;100527.53;4973526;28;20925;-87
2022/06/30 08:48:29;;;;;;;7.20;5.78;;;;;;;32.33;36.99;100542.88;4984843;28;20042;-88
2022/06/30 08:51:09;;;;;;;7.47;6.75;;;;;;;32.72;36.04;100533.47;4972694;28;20046;-87
2022/06/30 08:53:51;;;;;;;7.28;6.65;;;;;;;33.16;35.46;100532.47;4987262;28;20048;-88
2022/06/30 08:56:19;;;;;;;7.27;6.57;;;;;;;33.19;35.01;100528.56;4969655;28;20053;-88
2022/06/30 08:58:49;;;;;;;7.78;6.45;;;;;;;33.46;34.80;100527.50;4984920;28;20359;-85
2022/06/30 09:01:17;;;;;;;7.68;6.93;;;;;;;33.88;34.30;100531.13;4984450;28;20085;-87
2022/06/30 09:03:45;;;;;;;7.38;6.78;;;;;;;33.99;33.78;100521.78;4985212;28;20070;-86
2022/06/30 09:06:14;;;;;;;7.75;6.93;;;;;;;33.73;34.30;100526.34;4985920;28;20073;-86
2022/06/30 09:08:41;;;;;;;7.45;6.85;;;;;;;33.86;33.97;100534.00;4988507;28;20169;-87
2022/06/30 09:11:11;;;;;;;6.68;6.13;;;;;;;34.06;33.22;100514.66;4956230;28;20112;-89
2022/06/30 09:13:48;;;;;;;8.15;5.93;;;;;;;34.54;33.00;100525.63;4969675;28;20113;-91
2022/06/30 09:16:17;;;;;;;8.13;7.25;;;;;;;35.13;31.69;100522.53;4969271;28;20054;-90
2022/06/30 09:18:46;;;;;;;7.50;6.90;;;;;;;34.76;32.62;100524.03;4985329;28;20060;-87
2022/06/30 09:21:19;;;;;;;7.20;6.50;;;;;;;35.17;32.10;100531.19;4973107;28;20133;-89
2022/06/30 09:23:48;;;;;;;7.47;6.75;;;;;;;34.62;32.46;100526.44;4987541;28;20037;-89
2022/06/30 09:26:27;;;;;;;6.68;6.20;;;;;;;34.26;33.39;100520.56;4990616;28;20046;-89
2022/06/30 09:28:56;;;;;;;6.78;6.18;;;;;;;34.44;32.68;100512.22;4977376;28;20042;-90
2022/06/30 09:31:44;;;;;;;7.13;6.38;;;;;;;34.60;32.09;100519.47;4979032;28;20081;-89
2022/06/30 09:34:19;;;;;;;12.02;6.40;;;;;;;35.30;31.48;100517.84;5010212;28;20061;-90
2022/06/30 09:36:50;;;;;;;5.65;5.25;;;;;;;35.98;30.64;100512.59;4984534;28;20062;-92
2022/06/30 09:39:26;;;;;;;10.98;9.30;;;;;;;36.85;29.99;100515.81;4985172;28;20070;-90
2022/06/30 09:41:55;;;;;;;6.28;5.78;;;;;;;37.16;29.48;100501.91;5003145;28;20509;-92
2022/06/30 09:44:24;;;;;;;7.47;6.82;;;;;;;37.70;28.70;100497.84;5002990;28;20624;-92
2022/06/30 09:47:11;;;;;;;10.07;6.18;;;;;;;38.26;27.23;100509.91;5003902;28;20077;-93
2022/06/30 09:49:44;;;;;;;7.75;6.05;;;;;;;38.00;28.08;100508.66;4984831;28;20115;-88
2022/06/30 09:55:09;;;;;;;6.57;6.00;;;;;;;37.89;27.92;100512.78;4973776;28;20053;-88
2022/06/30 09:57:44;;;;;;;9.15;6.45;;;;;;;37.92;27.41;100505.22;4974708;28;20053;-87
2022/06/30 10:00:16;;;;;;;5.60;5.10;;;;;;;37.88;27.63;100512.97;4976786;28;20091;-88
2022/06/30 10:02:53;;;;;;;5.50;4.97;;;;;;;38.12;27.22;100503.47;4988734;28;20115;-88
2022/06/30 10:05:21;;;;;;;5.47;4.97;;;;;;;37.71;28.03;100520.56;4986993;28;20042;-89
2022/06/30 10:08:01;;;;;;;6.22;5.63;;;;;;;37.55;28.11;100516.22;4972725;28;20050;-87
2022/06/30 10:10:41;;;;;;;;;;;;;;;;;;;;;
2022/06/30 10:13:17;;;;;;;5.32;4.82;;;;;;;38.64;26.57;100497.72;4971618;28;20046;-87
2022/06/30 10:16:07;;;;;;;5.45;5.05;;;;;;;38.39;26.62;100498.22;4976703;28;20054;-91
2022/06/30 10:18:40;;;;;;;6.15;5.10;;;;;;;38.95;26.36;100504.63;4989652;28;20065;-87
2022/06/30 10:21:08;;;;;;;5.43;5.03;;;;;;;39.87;25.42;100491.34;4990265;28;20053;-87
2022/06/30 10:23:40;;;;;;;5.68;5.18;;;;;;;40.56;24.90;100493.78;4985847;28;20078;-89
2022/06/30 10:27:11;;;;;;;6.15;5.30;;;;;;;40.79;24.53;100491.38;4992974;28;20076;-87
2022/06/30 10:28:55;;;;;;;6.05;5.50;;;;;;;41.01;24.05;100486.44;4990147;28;20385;-89
2022/06/30 10:31:36;;;;;;;5.97;5.47;;;;;;;41.20;23.86;100493.94;4977856;28;20046;-89
2022/06/30 10:34:34;;;;;;;7.95;4.57;;;;;;;41.23;23.43;100486.09;4987681;28;20053;-89
2022/06/30 10:37:20;;;;;;;5.78;5.22;;;;;;;40.95;23.65;100478.22;4975416;28;21004;-88
2022/06/30 10:40:04;;;;;;;5.63;5.20;;;;;;;40.72;24.07;100481.47;4975566;28;20508;-93
2022/06/30 10:43:00;;;;;;;5.20;4.75;;;;;;;40.97;23.70;100492.59;4988157;28;20053;-92
2022/06/30 10:45:27;;;;;;;5.57;5.13;;;;;;;41.94;23.17;100486.03;4989953;28;20137;-92
2022/06/30 10:48:07;;;;;;;5.72;5.22;;;;;;;42.60;21.80;100475.41;4988433;28;20050;-89
2022/06/30 10:50:37;;;;;;;6.47;5.40;;;;;;;41.43;22.52;100482.41;4992308;28;20050;-87
2022/06/30 10:53:08;;;;;;;5.68;4.97;;;;;;;40.82;23.85;100470.88;4973393;28;20054;-89
2022/06/30 10:55:59;;;;;;;4.95;4.68;;;;;;;41.49;22.86;100470.53;4988681;28;20043;-88
2022/06/30 10:58:26;;;;;;;5.57;5.07;;;;;;;42.31;22.25;100467.69;4978224;28;20417;-88
2022/06/30 11:01:14;;;;;;;4.40;4.10;;;;;;;42.34;22.03;100469.16;4981232;28;20527;-88
2022/06/30 11:03:40;;;;;;;4.70;4.40;;;;;;;41.98;22.84;100466.13;4994922;28;20042;-89
2022/06/30 11:06:12;;;;;;;6.15;5.65;;;;;;;40.98;23.66;100475.09;4979142;28;20054;-86
2022/06/30 11:08:39;;;;;;;5.85;5.25;;;;;;;40.58;23.85;100469.75;4998290;28;20054;-93
2022/06/30 11:11:25;;;;;;;5.35;4.95;;;;;;;41.02;23.47;100473.56;4993141;28;20053;-88
2022/06/30 11:14:13;;;;;;;5.93;5.53;;;;;;;42.29;21.91;100458.00;4970380;28;20042;-93
2022/06/30 11:16:46;;;;;;;5.55;5.05;;;;;;;42.72;21.82;100465.31;5008063;28;20042;-89
2022/06/30 11:19:21;;;;;;;5.72;5.18;;;;;;;43.25;20.97;100460.16;4976953;28;20050;-92
2022/06/30 11:21:49;;;;;;;4.75;4.45;;;;;;;44.22;19.93;100460.84;4989036;28;20057;-88
2022/06/30 11:30:20;;;;;;;4.95;4.32;;;;;;;44.75;19.82;100450.69;4994019;28;20050;-88
2022/06/30 11:32:51;;;;;;;8.65;5.55;;;;;;;44.54;19.68;100450.25;4993159;28;20097;-87
2022/06/30 11:35:28;;;;;;;5.85;5.35;;;;;;;44.51;19.87;100447.97;4992103;28;20046;-90
2022/06/30 11:38:07;;;;;;;5.57;5.18;;;;;;;44.21;19.94;100437.09;4961189;28;20061;-88
2022/06/30 11:40:41;;;;;;;5.90;5.13;;;;;;;44.05;20.26;100433.16;4990596;28;20609;-91
2022/06/30 11:43:55;;;;;;;;;;;;;;;44.11;19.82;100430.28;4974598;28;20042;-89
2022/06/30 11:46:25;;;;;;;7.10;5.50;;;;;;;43.33;20.92;100420.41;5010377;28;19936;-92
2022/06/30 11:54:42;;;;;;;10.38;5.55;;;;;;;45.76;18.56;100424.22;4991766;28;20034;-90
2022/06/30 11:58:00;;;;;;;5.25;4.90;;;;;;;46.38;17.78;100428.72;4991763;28;20058;-92
2022/06/30 12:00:30;;;;;;;5.63;5.00;;;;;;;44.13;20.02;100420.94;4974572;28;20073;-90
2022/06/30 12:03:13;;;;;;;5.10;4.72;;;;;;;43.35;20.65;100418.25;4959712;28;20053;-88
2022/06/30 12:05:57;;;;;;;5.43;4.90;;;;;;;44.32;19.80;100419.72;4992124;28;20050;-90
2022/06/30 12:08:32;;;;;;;5.32;4.93;;;;;;;44.82;19.05;100417.38;4957365;28;20043;-89
2022/06/30 12:11:00;;;;;;;5.03;4.50;;;;;;;45.15;18.23;100418.53;4993845;28;20092;-92
2022/06/30 12:13:29;;;;;;;4.60;4.22;;;;;;;44.85;18.81;100414.97;4988345;28;20050;-92
2022/06/30 12:16:06;;;;;;;5.63;5.22;;;;;;;45.18;18.63;100407.00;4990809;28;20045;-91